Wokal Field Glasgow International Airport
KGGW : rendu visible

Aérodrome :











RETROUVEZ-NOUS SUR...

 
LOGIN :

S'inscrire | Disclaimer

   EN    FR    IT 

 









Légende :    VFR   VFR Marginal   IFR   IFR Intensif   IFR Très Intensif
Visi : 
Plafond : 
>= 8 km
>= 3000ft
5 à 8 km
1000 à 3000 ft
1500m à 5 km
500 à 1000 ft
800 à 1500m
200 à 500 ft
< 800m
< 200 ft
Symboles :   Orages  Brouillard  Fortes neiges  Fortes précipitations  Vent > 20 kt






- Altitude de l'aérodrome : 2296 ft
- Code IATA : GGW


KGGW - Wokal Field Glasgow International

DERNIER METAR :
  • 310653Z AUTO 11016KT 10SM CLR 17/09 A2990 RMK AO2 SLP116 T01720089 402560100

METARs EXPIRÉS :
  • 310553Z AUTO 11017KT 10SM CLR 18/09 A2992 RMK AO2 SLP126 T01780089 10256 20178 58011
  • 310453Z AUTO 12018KT 10SM CLR 19/08 A2995 RMK AO2 PK WND 12026/0411 SLP134 T01940083

TAF KGGW
Valide du 31 à 06h jusqu'au 01 à 06h UTC


310532Z 3106/0106 11018G27KT P6SM SCT150
FM312100 21016KT P6SM FEW100
FM312200 23018G26KT P6SM FEW100
FIR KZLC / Amérique du Nord



MET'MAP, la Météo Aéronautique d'un coup d'oeil ! - Copyright ORBIFLY Décembre 2007 - Disclaimer

ORBIFLY MET'MAP TEAM :

Programmation & Développement : Alexandra Zaïnal
Sur une idée originale de : Baudouin d'Aumeries
Assistance à la programmation : Marc-Olivier Méhu
Soutien technique & logistique : Manuel Goepfert

Contact : metmap@orbifly.com




SOURCES & CREDITS :

   NOAA       Earth
Advisory